createdAt,value
2022-07-30T00:01:12.200Z,4.37
2022-07-30T00:04:00.449Z,4.50
2022-07-30T00:06:50.841Z,4.50
2022-07-30T00:09:39.093Z,5.27
2022-07-30T00:12:27.299Z,4.17
2022-07-30T00:15:16.836Z,3.77
2022-07-30T00:18:05.182Z,3.93
2022-07-30T00:20:53.616Z,5.37
2022-07-30T00:23:51.170Z,5.20
2022-07-30T00:26:50.334Z,5.87
2022-07-30T00:29:38.614Z,4.27
2022-07-30T00:32:34.563Z,6.53
2022-07-30T00:35:22.769Z,7.90
2022-07-30T00:38:10.991Z,4.10
2022-07-30T00:40:59.258Z,7.40
2022-07-30T00:43:47.479Z,7.73
2022-07-30T00:46:35.684Z,4.20
2022-07-30T00:49:25.481Z,4.87
2022-07-30T00:52:14.432Z,7.20
2022-07-30T00:55:05.700Z,5.43
2022-07-30T00:57:53.919Z,4.60
2022-07-30T01:00:42.503Z,5.07
2022-07-30T01:03:30.740Z,4.23
2022-07-30T01:06:20.548Z,5.40
2022-07-30T01:09:09.193Z,4.33
2022-07-30T01:11:57.423Z,4.73
2022-07-30T01:14:45.869Z,6.37
2022-07-30T01:17:35.166Z,5.10
2022-07-30T01:20:27.888Z,4.90
2022-07-30T01:23:26.069Z,4.43
2022-07-30T01:26:19.921Z,4.47
2022-07-30T01:29:10.312Z,4.00
2022-07-30T01:32:00.274Z,4.37
2022-07-30T01:34:49.735Z,3.90
2022-07-30T01:37:39.338Z,4.30
2022-07-30T01:40:28.872Z,4.57
2022-07-30T01:43:19.910Z,4.50
2022-07-30T01:46:11.121Z,4.17
2022-07-30T01:49:01.093Z,4.13
2022-07-30T01:51:50.518Z,6.10
2022-07-30T01:54:39.980Z,6.63
2022-07-30T01:57:28.636Z,4.77
2022-07-30T02:00:18.850Z,4.43
2022-07-30T02:03:08.890Z,4.90
2022-07-30T02:06:01.720Z,5.00
2022-07-30T02:08:54.189Z,4.50
2022-07-30T02:12:03.042Z,4.80
2022-07-30T02:14:55.883Z,4.53
2022-07-30T02:17:51.348Z,3.97
2022-07-30T02:20:43.529Z,4.57
2022-07-30T02:23:36.329Z,4.87
2022-07-30T02:26:27.260Z,4.97
2022-07-30T02:29:18.785Z,4.90
2022-07-30T02:32:10.999Z,4.33
2022-07-30T02:35:10.347Z,5.27
2022-07-30T02:37:59.902Z,5.20
2022-07-30T02:40:49.155Z,5.30
2022-07-30T02:43:38.693Z,4.67
2022-07-30T02:46:27.615Z,4.90
2022-07-30T02:49:17.799Z,4.50
2022-07-30T02:52:12.159Z,5.77
2022-07-30T02:55:01.403Z,5.40
2022-07-30T02:57:52.418Z,4.40
2022-07-30T03:00:42.081Z,5.07
2022-07-30T03:03:31.094Z,4.20
2022-07-30T03:06:20.898Z,4.10
2022-07-30T03:09:11.197Z,4.77
2022-07-30T03:12:04.057Z,5.70
2022-07-30T03:14:52.757Z,4.20
2022-07-30T03:17:47.593Z,4.93
2022-07-30T03:20:36.875Z,4.50
2022-07-30T03:23:26.355Z,4.30
2022-07-30T03:26:17.457Z,4.47
2022-07-30T03:29:06.189Z,4.40
2022-07-30T03:31:54.964Z,4.90
2022-07-30T03:34:44.515Z,5.37
2022-07-30T03:37:36.951Z,4.60
2022-07-30T03:40:26.053Z,4.73
2022-07-30T03:43:32.626Z,4.80
2022-07-30T03:46:23.293Z,4.70
2022-07-30T03:49:12.582Z,4.27
2022-07-30T03:52:02.288Z,6.07
2022-07-30T03:54:50.977Z,6.10
2022-07-30T03:57:39.566Z,4.77
2022-07-30T04:00:29.606Z,4.00
2022-07-30T04:03:26.348Z,6.50
2022-07-30T04:06:14.662Z,4.43
2022-07-30T04:09:03.021Z,4.23
2022-07-30T04:11:51.441Z,5.23
2022-07-30T04:14:41.656Z,5.80
2022-07-30T04:17:39.238Z,6.30
2022-07-30T04:20:31.967Z,4.43
2022-07-30T04:23:20.655Z,4.40
2022-07-30T04:26:09.365Z,4.60
2022-07-30T04:28:57.672Z,5.30
2022-07-30T04:31:46.073Z,4.33
2022-07-30T04:34:36.107Z,4.80
2022-07-30T04:37:26.495Z,4.70
2022-07-30T04:40:14.766Z,5.00
2022-07-30T04:43:02.969Z,6.80
2022-07-30T04:45:51.150Z,4.77
2022-07-30T04:48:39.413Z,4.77
2022-07-30T04:51:32.907Z,4.90
2022-07-30T04:54:22.506Z,5.67
2022-07-30T04:57:11.929Z,4.53
2022-07-30T05:00:00.246Z,4.77
2022-07-30T05:02:50.521Z,5.37
2022-07-30T05:05:39.346Z,5.27
2022-07-30T05:08:29.134Z,4.03
2022-07-30T05:11:20.474Z,4.20
2022-07-30T05:14:08.689Z,4.77
2022-07-30T05:16:57.551Z,3.80
2022-07-30T05:19:45.955Z,4.67
2022-07-30T05:22:36.530Z,4.50
2022-07-30T05:25:26.626Z,4.27
2022-07-30T05:28:14.831Z,4.30
2022-07-30T05:31:03.059Z,4.27
2022-07-30T05:34:01.291Z,7.20
2022-07-30T05:36:51.103Z,5.63
2022-07-30T05:39:57.276Z,5.17
2022-07-30T05:42:48.948Z,4.00
2022-07-30T05:45:37.413Z,4.03
2022-07-30T05:48:26.589Z,5.53
2022-07-30T05:51:14.902Z,4.30
2022-07-30T05:54:03.066Z,4.03
2022-07-30T05:56:51.357Z,4.33
2022-07-30T05:59:40.953Z,4.93
2022-07-30T06:02:29.229Z,4.23
2022-07-30T06:05:17.547Z,4.73
2022-07-30T06:08:07.412Z,4.37
2022-07-30T06:10:55.650Z,4.10
2022-07-30T06:13:44.483Z,7.27
2022-07-30T06:16:34.078Z,3.50
2022-07-30T06:19:22.298Z,5.40
2022-07-30T06:22:10.571Z,6.07
2022-07-30T06:24:58.778Z,5.53
2022-07-30T06:27:47.007Z,4.17
2022-07-30T06:30:35.304Z,4.33
2022-07-30T06:33:25.149Z,4.17
2022-07-30T06:36:14.483Z,4.10
2022-07-30T06:39:02.835Z,3.70
2022-07-30T06:41:51.726Z,4.10
2022-07-30T06:44:39.982Z,4.20
2022-07-30T06:47:29.151Z,4.90
2022-07-30T06:50:20.185Z,4.30
2022-07-30T06:53:08.808Z,4.53
2022-07-30T06:56:00.249Z,4.20
2022-07-30T06:58:49.226Z,4.13
2022-07-30T07:01:37.491Z,4.37
2022-07-30T07:04:25.792Z,4.00
2022-07-30T07:07:19.967Z,4.43
2022-07-30T07:10:20.681Z,4.40
2022-07-30T07:13:08.902Z,5.57
2022-07-30T07:15:58.348Z,5.87
2022-07-30T07:18:46.560Z,5.50
2022-07-30T07:21:34.796Z,5.03
2022-07-30T07:24:24.339Z,4.83
2022-07-30T07:27:15.658Z,5.00
2022-07-30T07:30:06.043Z,5.10
2022-07-30T07:32:54.569Z,4.30
2022-07-30T07:35:49.160Z,4.80
2022-07-30T07:38:38.215Z,4.87
2022-07-30T07:41:27.913Z,5.63
2022-07-30T07:44:16.126Z,4.50
2022-07-30T07:47:04.364Z,4.60
2022-07-30T07:49:56.490Z,9.00
2022-07-30T07:52:44.855Z,4.67
2022-07-30T07:55:33.773Z,4.43
2022-07-30T07:58:26.049Z,4.30
2022-07-30T08:01:14.900Z,4.43
2022-07-30T08:04:04.433Z,5.03
2022-07-30T08:06:59.117Z,4.43
2022-07-30T08:09:47.553Z,4.73
2022-07-30T08:12:36.414Z,5.03
2022-07-30T08:15:26.064Z,6.00
2022-07-30T08:18:14.234Z,4.53
2022-07-30T08:21:02.515Z,5.77
2022-07-30T08:23:50.757Z,5.13
2022-07-30T08:26:38.946Z,4.90
2022-07-30T08:29:27.078Z,4.53
2022-07-30T08:32:16.657Z,5.23
2022-07-30T08:35:05.885Z,5.50
2022-07-30T08:37:55.505Z,5.40
2022-07-30T08:40:43.921Z,5.20
2022-07-30T08:43:38.252Z,5.77
2022-07-30T08:46:30.341Z,4.40
2022-07-30T08:49:20.623Z,6.80
2022-07-30T08:52:09.642Z,7.50
2022-07-30T08:54:58.061Z,5.33
2022-07-30T08:57:46.535Z,6.37
2022-07-30T09:00:34.799Z,4.87
2022-07-30T09:03:23.033Z,5.80
2022-07-30T09:06:12.793Z,5.63
2022-07-30T09:09:00.993Z,5.00
2022-07-30T09:11:49.248Z,5.90
2022-07-30T09:14:37.453Z,4.97
2022-07-30T09:17:28.855Z,5.07
2022-07-30T09:20:20.570Z,4.23
2022-07-30T09:23:10.150Z,4.67
2022-07-30T09:26:00.890Z,5.10
2022-07-30T09:28:49.215Z,4.93
2022-07-30T09:31:54.603Z,5.40
2022-07-30T09:34:42.822Z,4.20
2022-07-30T09:37:31.105Z,5.70
2022-07-30T09:40:21.152Z,6.37
2022-07-30T09:43:24.552Z,5.30
2022-07-30T09:46:16.233Z,4.70
2022-07-30T09:49:16.419Z,4.90
2022-07-30T09:52:04.873Z,5.00
2022-07-30T09:54:54.693Z,4.90
2022-07-30T09:57:58.910Z,5.27
2022-07-30T10:00:47.386Z,4.77
2022-07-30T10:03:43.092Z,4.97
2022-07-30T10:06:35.048Z,5.43
2022-07-30T10:09:27.976Z,4.80
2022-07-30T10:12:16.683Z,4.70
2022-07-30T10:15:08.120Z,4.60
2022-07-30T10:17:57.053Z,6.07
2022-07-30T10:20:45.681Z,4.83
2022-07-30T10:23:35.615Z,5.30
2022-07-30T10:26:24.586Z,5.17
2022-07-30T10:29:16.280Z,4.53
2022-07-30T10:32:06.980Z,4.67
2022-07-30T10:34:57.816Z,5.33
2022-07-30T10:37:51.025Z,4.33
2022-07-30T10:40:47.215Z,4.70
2022-07-30T10:44:04.053Z,4.97
2022-07-30T10:47:07.775Z,5.07
2022-07-30T10:50:10.691Z,6.20
2022-07-30T10:53:01.465Z,5.53
2022-07-30T10:56:18.725Z,5.23
2022-07-30T10:59:15.098Z,5.17
2022-07-30T11:02:10.848Z,6.50
2022-07-30T11:05:45.037Z,5.03
2022-07-30T11:08:36.845Z,6.97
2022-07-30T11:12:04.787Z,5.53
2022-07-30T11:15:07.375Z,5.73
2022-07-30T11:18:12.117Z,4.33
2022-07-30T11:21:21.369Z,7.17
2022-07-30T11:24:43.860Z,5.37
2022-07-30T11:27:41.491Z,5.33
2022-07-30T11:30:35.923Z,5.70
2022-07-30T11:33:32.922Z,4.73
2022-07-30T11:36:24.372Z,5.97
2022-07-30T11:39:12.702Z,5.20
2022-07-30T11:42:25.227Z,5.23
2022-07-30T11:45:32.614Z,5.90
2022-07-30T11:48:21.884Z,7.77
2022-07-30T11:51:10.723Z,6.77
2022-07-30T11:54:04.282Z,6.93
2022-07-30T11:56:54.473Z,5.40
2022-07-30T11:59:54.539Z,4.53
2022-07-30T12:02:43.603Z,4.00
2022-07-30T12:05:31.812Z,4.63
2022-07-30T12:08:33.483Z,4.83
2022-07-30T12:11:26.107Z,5.70
2022-07-30T12:14:14.315Z,4.20
2022-07-30T12:17:02.637Z,4.47
2022-07-30T12:19:51.466Z,4.53
2022-07-30T12:22:39.641Z,4.87
2022-07-30T12:25:27.872Z,4.10
2022-07-30T12:28:23.265Z,4.50
2022-07-30T12:31:15.627Z,4.80
2022-07-30T12:34:03.926Z,5.67
2022-07-30T12:36:55.275Z,5.63
2022-07-30T12:39:43.492Z,6.07
2022-07-30T12:42:34.718Z,5.13
2022-07-30T12:45:51.906Z,5.43
2022-07-30T12:48:54.675Z,5.43
2022-07-30T12:51:52.330Z,4.33
2022-07-30T12:55:01.374Z,4.57
2022-07-30T12:57:56.726Z,6.47
2022-07-30T13:00:52.646Z,5.10
2022-07-30T13:03:41.680Z,9.23
2022-07-30T13:06:29.924Z,5.00
2022-07-30T13:09:21.043Z,4.47
2022-07-30T13:12:13.272Z,5.07
2022-07-30T13:15:01.547Z,4.90
2022-07-30T13:17:51.140Z,5.20
2022-07-30T13:20:44.904Z,5.20
2022-07-30T13:23:33.158Z,5.93
2022-07-30T13:26:21.382Z,4.70
2022-07-30T13:29:10.145Z,5.17
2022-07-30T13:31:58.848Z,4.67
2022-07-30T13:34:48.961Z,4.83
2022-07-30T13:37:38.155Z,4.53
2022-07-30T13:40:26.718Z,6.20
2022-07-30T13:43:15.062Z,5.03
2022-07-30T13:46:03.993Z,4.50
2022-07-30T13:48:55.239Z,4.40
2022-07-30T13:51:44.918Z,5.73
2022-07-30T13:54:33.149Z,5.60
2022-07-30T13:57:21.420Z,5.17
2022-07-30T14:00:11.162Z,6.20
2022-07-30T14:03:01.002Z,5.13
2022-07-30T14:05:49.230Z,5.13
2022-07-30T14:08:38.840Z,4.83
2022-07-30T14:11:27.066Z,5.13
2022-07-30T14:14:15.263Z,4.63
2022-07-30T14:17:03.909Z,4.80
2022-07-30T14:19:54.376Z,4.63
2022-07-30T14:22:42.653Z,4.90
2022-07-30T14:25:35.353Z,5.13
2022-07-30T14:28:23.605Z,4.90
2022-07-30T14:31:11.952Z,5.63
2022-07-30T14:34:00.200Z,4.57
2022-07-30T14:36:48.454Z,5.70
2022-07-30T14:39:36.761Z,5.50
2022-07-30T14:42:26.408Z,5.13
2022-07-30T14:45:14.701Z,4.90
2022-07-30T14:48:02.946Z,7.67
2022-07-30T14:51:13.045Z,5.10
2022-07-30T14:53:59.737Z,5.23
2022-07-30T14:56:48.339Z,5.20
2022-07-30T14:59:38.098Z,4.60
2022-07-30T15:02:26.332Z,5.43
2022-07-30T15:05:14.537Z,5.43
2022-07-30T15:08:02.739Z,4.80
2022-07-30T15:10:51.008Z,5.10
2022-07-30T15:13:50.167Z,4.90
2022-07-30T15:16:40.381Z,5.27
2022-07-30T15:19:28.779Z,4.27
2022-07-30T15:22:16.994Z,5.43
2022-07-30T15:25:05.939Z,4.60
2022-07-30T15:27:54.163Z,4.47
2022-07-30T15:30:42.997Z,4.50
2022-07-30T15:33:36.009Z,5.30
2022-07-30T15:36:25.402Z,5.53
2022-07-30T15:39:13.654Z,4.93
2022-07-30T15:42:05.955Z,4.20
2022-07-30T15:45:15.511Z,4.27
2022-07-30T15:48:02.950Z,5.13
2022-07-30T15:50:52.509Z,3.90
2022-07-30T15:53:40.740Z,5.40
2022-07-30T15:56:31.084Z,4.80
2022-07-30T15:59:19.543Z,4.40
2022-07-30T16:02:08.142Z,5.10
2022-07-30T16:04:56.355Z,4.50
2022-07-30T16:07:46.116Z,4.93
2022-07-30T16:10:34.625Z,5.30
2022-07-30T16:13:22.870Z,5.43
2022-07-30T16:16:11.160Z,5.13
2022-07-30T16:18:59.622Z,5.07
2022-07-30T16:21:47.851Z,4.50
2022-07-30T16:24:38.228Z,5.77
2022-07-30T16:27:26.466Z,5.03
2022-07-30T16:30:14.661Z,4.20
2022-07-30T16:33:02.821Z,4.27
2022-07-30T16:35:51.825Z,4.73
2022-07-30T16:38:40.048Z,5.00
2022-07-30T16:41:29.631Z,4.63
2022-07-30T16:44:17.833Z,4.20
2022-07-30T16:47:08.550Z,6.27
2022-07-30T16:50:01.203Z,4.30
2022-07-30T16:52:49.554Z,4.60
2022-07-30T16:55:37.867Z,4.70
2022-07-30T16:58:28.374Z,4.50
2022-07-30T17:01:19.237Z,4.40
2022-07-30T17:04:07.478Z,4.60
2022-07-30T17:06:55.690Z,4.83
2022-07-30T17:09:43.865Z,5.10
2022-07-30T17:12:40.313Z,5.10
2022-07-30T17:15:33.311Z,4.97
2022-07-30T17:18:21.635Z,5.13
2022-07-30T17:21:09.876Z,5.00
2022-07-30T17:23:58.054Z,5.47
2022-07-30T17:26:47.102Z,4.67
2022-07-30T17:29:49.767Z,4.90
2022-07-30T17:32:40.253Z,5.40
2022-07-30T17:35:28.663Z,4.57
2022-07-30T17:38:16.979Z,5.33
2022-07-30T17:41:05.158Z,5.20
2022-07-30T17:43:53.409Z,4.90
2022-07-30T17:46:41.596Z,5.43
2022-07-30T17:49:31.233Z,5.67
2022-07-30T17:52:24.555Z,5.43
2022-07-30T17:55:14.854Z,5.23
2022-07-30T17:58:03.270Z,5.80
2022-07-30T18:00:51.860Z,5.70
2022-07-30T18:03:45.153Z,5.47
2022-07-30T18:06:35.905Z,5.53
2022-07-30T18:09:24.172Z,5.80
2022-07-30T18:12:12.394Z,11.07
2022-07-30T18:15:00.878Z,7.60
2022-07-30T18:17:49.611Z,6.00
2022-07-30T18:20:37.930Z,5.50
2022-07-30T18:23:37.939Z,6.40
2022-07-30T18:26:26.116Z,7.77
2022-07-30T18:29:15.082Z,12.10
2022-07-30T18:32:04.007Z,12.73
2022-07-30T18:34:52.721Z,10.10
2022-07-30T18:37:41.679Z,9.60
2022-07-30T18:40:37.631Z,8.57
2022-07-30T18:43:26.834Z,6.50
2022-07-30T18:46:15.092Z,7.33
2022-07-30T18:49:20.952Z,7.93
2022-07-30T18:52:11.531Z,8.03
2022-07-30T18:54:59.696Z,7.00
2022-07-30T18:57:52.343Z,6.67
2022-07-30T19:00:43.265Z,6.13
2022-07-30T19:03:31.566Z,6.03
2022-07-30T19:06:21.492Z,6.00
2022-07-30T19:09:17.256Z,5.70
2022-07-30T19:12:06.607Z,5.87
2022-07-30T19:14:57.062Z,5.90
2022-07-30T19:17:46.870Z,5.80
2022-07-30T19:20:35.234Z,5.63
2022-07-30T19:23:23.467Z,5.67
2022-07-30T19:26:13.713Z,5.17
2022-07-30T19:29:01.970Z,5.37
2022-07-30T19:31:51.592Z,5.27
2022-07-30T19:34:41.020Z,10.50
2022-07-30T19:37:29.307Z,5.20
2022-07-30T19:40:18.781Z,5.73
2022-07-30T19:43:10.242Z,5.03
2022-07-30T19:45:58.743Z,5.40
2022-07-30T19:48:48.550Z,4.87
2022-07-30T19:52:10.929Z,5.30
2022-07-30T19:54:47.233Z,6.97
2022-07-30T19:57:53.426Z,5.23
2022-07-30T20:00:42.570Z,5.87
2022-07-30T20:03:38.708Z,5.33
2022-07-30T20:06:28.453Z,10.07
2022-07-30T20:09:17.393Z,5.73
2022-07-30T20:12:06.076Z,5.97
2022-07-30T20:14:55.765Z,6.20
2022-07-30T20:17:44.002Z,7.53
2022-07-30T20:20:34.902Z,5.30
2022-07-30T20:23:24.976Z,6.10
2022-07-30T20:26:15.072Z,5.97
2022-07-30T20:29:03.570Z,5.13
2022-07-30T20:31:59.022Z,5.30
2022-07-30T20:34:47.207Z,5.73
2022-07-30T20:37:40.363Z,5.33
2022-07-30T20:40:46.647Z,5.50
2022-07-30T20:43:34.851Z,5.37
2022-07-30T20:46:39.523Z,6.07
2022-07-30T20:49:34.137Z,6.20
2022-07-30T20:52:23.991Z,5.87
2022-07-30T20:55:14.374Z,6.77
2022-07-30T20:58:16.355Z,7.60
2022-07-30T21:01:05.679Z,6.77
2022-07-30T21:03:53.921Z,6.87
2022-07-30T21:06:45.909Z,7.77
2022-07-30T21:09:49.731Z,8.73
2022-07-30T21:12:40.562Z,9.33
2022-07-30T21:15:34.933Z,10.23
2022-07-30T21:18:24.193Z,10.77
2022-07-30T21:21:12.346Z,13.23
2022-07-30T21:24:02.830Z,14.87
2022-07-30T21:26:53.812Z,15.77
2022-07-30T21:29:42.679Z,17.20
2022-07-30T21:32:32.219Z,16.70
2022-07-30T21:35:20.462Z,15.83
2022-07-30T21:38:08.842Z,17.23
2022-07-30T21:40:57.076Z,16.63
2022-07-30T21:43:45.629Z,17.93
2022-07-30T21:46:33.881Z,17.50
2022-07-30T21:49:23.872Z,18.23
2022-07-30T21:52:12.160Z,18.67
2022-07-30T21:55:04.336Z,19.80
2022-07-30T21:57:52.767Z,20.13
2022-07-30T22:00:44.624Z,18.23
2022-07-30T22:04:01.949Z,19.40
2022-07-30T22:06:42.956Z,17.37
2022-07-30T22:09:34.218Z,17.63
2022-07-30T22:12:22.690Z,17.37
2022-07-30T22:15:17.181Z,16.50
2022-07-30T22:18:06.587Z,15.47
2022-07-30T22:20:55.650Z,15.30
2022-07-30T22:23:54.767Z,16.17
2022-07-30T22:26:45.670Z,14.30
2022-07-30T22:29:41.632Z,16.47
2022-07-30T22:32:30.970Z,13.57
2022-07-30T22:35:20.697Z,13.27
2022-07-30T22:38:20.608Z,13.10
2022-07-30T22:41:14.122Z,14.17
2022-07-30T22:44:02.518Z,14.07
2022-07-30T22:46:56.546Z,14.20
2022-07-30T22:49:54.981Z,12.97
2022-07-30T22:52:53.227Z,15.87
2022-07-30T22:55:50.663Z,16.73
2022-07-30T22:58:43.205Z,16.97
2022-07-30T23:01:31.457Z,16.33
2022-07-30T23:04:20.712Z,18.50
2022-07-30T23:07:13.986Z,19.47
2022-07-30T23:10:17.720Z,16.73
2022-07-30T23:16:02.402Z,18.00
2022-07-30T23:18:50.588Z,18.40
2022-07-30T23:21:39.543Z,16.30
2022-07-30T23:24:39.871Z,17.50
2022-07-30T23:27:28.146Z,15.50
2022-07-30T23:30:16.408Z,16.53
2022-07-30T23:33:06.658Z,16.03
2022-07-30T23:35:54.857Z,15.33
2022-07-30T23:38:43.106Z,15.20
2022-07-30T23:41:34.497Z,16.07
2022-07-30T23:44:22.717Z,13.77
2022-07-30T23:47:11.132Z,13.53
2022-07-30T23:50:00.827Z,13.70
2022-07-30T23:52:49.068Z,15.87
2022-07-30T23:55:37.994Z,14.97
2022-07-30T23:58:26.216Z,13.70
